Time;durP1;ratioP1;P1;durP2;ratioP2;P2;SDS_P1;SDS_P2;PMS_P1;PMS_P2;Temp;Humidity;BMP_temperature;BMP_pressure;BME280_temperature;BME280_humidity;BME280_pressure;Samples;Min_cycle;Max_cycle;Signal;HPM_P1;HPM_P2
2023/08/12 00:00:19;;;;;;;2.95;2.25;;;23.90;79.80;;;;;;5049077;28;20028;-66
2023/08/12 00:02:45;;;;;;;1.63;1.02;;;23.90;79.80;;;;;;5051506;28;20112;-66
2023/08/12 00:05:12;;;;;;;2.35;1.70;;;23.90;79.80;;;;;;5047430;28;20029;-66
2023/08/12 00:07:37;;;;;;;1.73;1.50;;;23.90;79.80;;;;;;5045251;28;20107;-66
2023/08/12 00:10:04;;;;;;;2.00;1.50;;;23.90;79.80;;;;;;5057306;28;20194;-66
2023/08/12 00:12:34;;;;;;;1.73;1.52;;;23.90;79.90;;;;;;5043775;28;20044;-61
2023/08/12 00:15:00;;;;;;;2.03;1.33;;;23.90;79.80;;;;;;5041635;28;20045;-66
2023/08/12 00:17:26;;;;;;;2.45;1.80;;;23.90;79.80;;;;;;5051806;28;20465;-66
2023/08/12 00:19:52;;;;;;;1.38;1.27;;;23.80;79.90;;;;;;5046767;28;20036;-66
2023/08/12 00:22:18;;;;;;;2.28;1.52;;;23.80;79.90;;;;;;5040934;28;20040;-66
2023/08/12 00:24:44;;;;;;;1.95;1.25;;;23.80;80.00;;;;;;5053098;28;20597;-66
2023/08/12 00:27:10;;;;;;;2.40;1.55;;;23.80;80.00;;;;;;5046818;28;20430;-66
2023/08/12 00:29:36;;;;;;;4.10;1.48;;;23.80;80.00;;;;;;5043502;28;20900;-66
2023/08/12 00:32:02;;;;;;;2.65;1.83;;;23.70;80.10;;;;;;5049531;28;20056;-61
2023/08/12 00:34:27;;;;;;;3.00;1.73;;;23.80;80.30;;;;;;5049663;28;20037;-61
2023/08/12 00:36:53;;;;;;;2.20;1.10;;;23.70;80.30;;;;;;5048190;28;20044;-61
2023/08/12 00:39:19;;;;;;;2.03;1.70;;;23.70;80.40;;;;;;5051005;28;20037;-61
2023/08/12 00:41:44;;;;;;;3.17;1.60;;;23.70;80.30;;;;;;5056024;28;20033;-62
2023/08/12 00:44:10;;;;;;;2.03;1.80;;;23.70;80.40;;;;;;5050623;28;20021;-61
2023/08/12 00:46:38;;;;;;;1.77;1.50;;;23.70;80.40;;;;;;5054556;28;20032;-61
2023/08/12 00:49:04;;;;;;;1.88;1.55;;;23.70;80.50;;;;;;5043749;28;20513;-66
2023/08/12 00:51:30;;;;;;;1.77;1.38;;;23.70;80.60;;;;;;5045913;28;20415;-61
2023/08/12 00:53:58;;;;;;;2.78;1.52;;;23.70;81.30;;;;;;5052864;28;20036;-61
2023/08/12 00:56:24;;;;;;;1.50;1.40;;;23.60;80.70;;;;;;5044642;28;20033;-66
2023/08/12 00:58:50;;;;;;;2.95;1.60;;;23.60;80.70;;;;;;5032954;28;20388;-62
2023/08/12 01:01:17;;;;;;;2.63;1.90;;;23.60;80.70;;;;;;5077536;28;20029;-61
2023/08/12 01:03:43;;;;;;;2.65;2.00;;;23.60;80.80;;;;;;5038911;28;20032;-62
2023/08/12 01:06:09;;;;;;;3.65;2.53;;;23.60;80.80;;;;;;5040650;28;20025;-66
2023/08/12 01:08:35;;;;;;;2.17;1.50;;;23.60;80.90;;;;;;5052323;28;20017;-66
2023/08/12 01:11:16;;;;;;;2.40;1.52;;;23.60;80.90;;;;;;5054542;28;20041;-66
2023/08/12 01:13:48;;;;;;;2.92;1.67;;;23.60;80.90;;;;;;5046367;28;20332;-61
2023/08/12 01:16:16;;;;;;;1.90;1.50;;;23.60;81.00;;;;;;5048133;28;20025;-66
2023/08/12 01:18:42;;;;;;;3.70;1.73;;;23.60;81.00;;;;;;5049012;28;20400;-66
2023/08/12 01:21:15;;;;;;;3.20;1.90;;;23.60;81.10;;;;;;5051644;28;20044;-66
2023/08/12 01:23:41;;;;;;;3.80;1.95;;;23.60;81.10;;;;;;5044106;28;20044;-66
2023/08/12 01:26:07;;;;;;;4.72;1.90;;;23.60;81.10;;;;;;5041056;28;20025;-61
2023/08/12 01:28:32;;;;;;;2.00;1.58;;;23.60;81.10;;;;;;5041349;28;20041;-66
2023/08/12 01:31:10;;;;;;;2.30;2.10;;;23.60;81.10;;;;;;5041392;28;20045;-66
2023/08/12 01:33:53;;;;;;;4.10;2.28;;;23.60;81.00;;;;;;5038888;28;20017;-66
2023/08/12 01:36:23;;;;;;;2.42;2.22;;;23.60;81.10;;;;;;5042391;28;20057;-66
2023/08/12 01:38:50;;;;;;;3.47;2.05;;;23.60;81.10;;;;;;5049087;28;20020;-66
2023/08/12 01:41:18;;;;;;;2.22;1.63;;;23.60;81.10;;;;;;5054819;28;20029;-65
2023/08/12 01:43:44;;;;;;;2.22;1.65;;;23.60;81.20;;;;;;5044719;28;20037;-66
2023/08/12 01:46:10;;;;;;;3.15;2.30;;;23.60;81.20;;;;;;5038873;28;20065;-66
2023/08/12 01:48:36;;;;;;;2.78;1.90;;;23.60;81.20;;;;;;5043080;28;20048;-66
2023/08/12 01:51:01;;;;;;;1.52;1.40;;;23.60;81.10;;;;;;5042788;28;20025;-61
2023/08/12 01:53:27;;;;;;;2.92;2.45;;;23.60;81.10;;;;;;5040312;28;20526;-62
2023/08/12 01:55:53;;;;;;;2.03;1.63;;;23.60;81.10;;;;;;5044163;28;20035;-62
2023/08/12 01:58:19;;;;;;;2.30;1.77;;;23.60;81.00;;;;;;5046225;28;20476;-61
2023/08/12 02:00:44;;;;;;;2.03;1.80;;;23.50;81.00;;;;;;5043146;28;20094;-62
2023/08/12 02:03:10;;;;;;;4.53;2.13;;;23.50;81.00;;;;;;5039471;28;20517;-61
2023/08/12 02:05:37;;;;;;;3.10;2.25;;;23.50;81.10;;;;;;5043961;28;20070;-61
2023/08/12 02:08:06;;;;;;;7.43;2.22;;;23.50;81.20;;;;;;5047936;28;20085;-62
2023/08/12 02:10:32;;;;;;;3.10;1.60;;;23.50;81.30;;;;;;5055370;28;20043;-62
2023/08/12 02:12:57;;;;;;;2.85;1.90;;;23.50;81.50;;;;;;5048183;28;20483;-61
2023/08/12 02:15:23;;;;;;;2.35;1.90;;;23.40;81.50;;;;;;5047632;28;20029;-62
2023/08/12 02:17:49;;;;;;;2.88;2.05;;;23.40;81.50;;;;;;5045865;28;20025;-62
2023/08/12 02:20:14;;;;;;;2.95;2.15;;;23.40;81.40;;;;;;5055377;28;20048;-66
2023/08/12 02:22:40;;;;;;;4.05;2.25;;;23.40;81.40;;;;;;5044503;28;20035;-66
2023/08/12 02:25:06;;;;;;;1.92;1.35;;;23.40;81.40;;;;;;5042303;28;20056;-66
2023/08/12 02:27:32;;;;;;;2.38;1.95;;;23.40;81.40;;;;;;5043558;28;21022;-66
2023/08/12 02:29:57;;;;;;;5.57;3.08;;;23.40;81.50;;;;;;5036573;28;20025;-66
2023/08/12 02:32:23;;;;;;;2.40;1.73;;;23.40;81.50;;;;;;5043639;28;20037;-66
2023/08/12 02:34:49;;;;;;;3.47;2.20;;;23.40;81.60;;;;;;5047806;28;20064;-66
2023/08/12 02:37:14;;;;;;;3.55;2.28;;;23.40;81.70;;;;;;5042633;28;20037;-67
2023/08/12 02:39:40;;;;;;;4.22;2.55;;;23.40;81.70;;;;;;5049482;28;20029;-66
2023/08/12 02:42:06;;;;;;;6.20;2.30;;;23.40;81.70;;;;;;5039997;28;20041;-66
2023/08/12 02:44:32;;;;;;;2.95;2.35;;;23.40;81.80;;;;;;5054178;28;20036;-66
2023/08/12 02:46:57;;;;;;;2.10;1.70;;;23.40;81.90;;;;;;5044658;28;20488;-66
2023/08/12 02:49:23;;;;;;;4.22;2.17;;;23.40;81.80;;;;;;5052980;28;20059;-62
2023/08/12 02:51:48;;;;;;;3.65;2.35;;;23.40;81.80;;;;;;5049650;28;20546;-61
2023/08/12 02:54:14;;;;;;;3.47;2.50;;;23.40;81.90;;;;;;5050923;28;20499;-62
2023/08/12 02:56:40;;;;;;;6.00;2.60;;;23.40;82.00;;;;;;5039113;28;20543;-66
2023/08/12 02:59:06;;;;;;;3.00;2.30;;;23.40;82.10;;;;;;5053275;28;20487;-66
2023/08/12 03:01:31;;;;;;;3.90;2.33;;;23.40;82.10;;;;;;5050117;28;20499;-66
2023/08/12 03:03:57;;;;;;;4.18;2.80;;;23.30;82.20;;;;;;5047922;28;20112;-62
2023/08/12 03:06:23;;;;;;;4.32;2.97;;;23.30;82.20;;;;;;5052377;28;20037;-61
2023/08/12 03:08:48;;;;;;;3.75;2.47;;;23.30;82.40;;;;;;5046106;28;20029;-66
2023/08/12 03:11:15;;;;;;;3.10;2.35;;;23.30;82.50;;;;;;5047089;28;20408;-66
2023/08/12 03:13:41;;;;;;;4.32;2.53;;;23.30;82.50;;;;;;5054319;28;20029;-66
2023/08/12 03:16:14;;;;;;;3.60;2.42;;;23.30;82.50;;;;;;5045457;28;20381;-66
2023/08/12 03:18:40;;;;;;;3.80;2.53;;;23.30;82.50;;;;;;5050124;28;20078;-66
2023/08/12 03:21:07;;;;;;;4.30;1.98;;;23.30;82.50;;;;;;5052389;28;20201;-66
2023/08/12 03:23:37;;;;;;;3.58;2.75;;;23.30;82.50;;;;;;5051776;28;20088;-66
2023/08/12 03:26:03;;;;;;;4.63;1.90;;;23.30;82.50;;;;;;5049064;28;20029;-66
2023/08/12 03:28:29;;;;;;;5.68;2.85;;;23.30;82.50;;;;;;5045486;28;20052;-66
2023/08/12 03:30:55;;;;;;;5.00;2.72;;;23.30;82.50;;;;;;5047876;28;20029;-66
2023/08/12 03:33:21;;;;;;;4.35;2.25;;;23.30;83.10;;;;;;5047761;28;20032;-62
2023/08/12 03:35:49;;;;;;;2.85;2.42;;;23.30;82.50;;;;;;5058889;28;20029;-61
2023/08/12 03:38:15;;;;;;;2.85;2.53;;;23.30;82.50;;;;;;5046009;28;20368;-61
2023/08/12 03:40:42;;;;;;;3.40;2.17;;;23.30;82.50;;;;;;5054048;28;20035;-62
2023/08/12 03:43:08;;;;;;;4.25;2.50;;;23.30;82.50;;;;;;5045707;28;20028;-62
2023/08/12 03:45:41;;;;;;;2.10;1.90;;;23.30;82.50;;;;;;5050678;28;20399;-62
2023/08/12 03:48:07;;;;;;;3.13;2.17;;;23.30;82.50;;;;;;5050460;28;20107;-62
2023/08/12 03:50:39;;;;;;;3.22;2.00;;;23.30;82.50;;;;;;5051351;28;20175;-62
2023/08/12 03:53:05;;;;;;;3.50;2.40;;;23.30;82.50;;;;;;5048818;28;20036;-62
2023/08/12 03:55:32;;;;;;;5.70;3.22;;;23.30;82.60;;;;;;5047198;28;20063;-66
2023/08/12 03:58:01;;;;;;;3.65;2.47;;;23.20;82.70;;;;;;5050869;28;20036;-66
2023/08/12 04:00:28;;;;;;;4.90;2.80;;;23.20;83.00;;;;;;5048457;28;20033;-66
2023/08/12 04:02:54;;;;;;;5.07;2.85;;;23.20;83.00;;;;;;5055653;28;20028;-61
2023/08/12 04:05:19;;;;;;;5.65;2.63;;;23.20;83.00;;;;;;5050976;28;20032;-62
2023/08/12 04:07:45;;;;;;;3.17;2.42;;;23.20;82.90;;;;;;5042852;28;20029;-61
2023/08/12 04:10:12;;;;;;;5.35;2.67;;;23.20;82.90;;;;;;5049131;28;20498;-66
2023/08/12 04:12:40;;;;;;;3.63;2.83;;;23.30;82.90;;;;;;5054876;28;20021;-66
2023/08/12 04:15:06;;;;;;;3.65;1.98;;;23.20;82.90;;;;;;5049333;28;20021;-66
2023/08/12 04:17:32;;;;;;;3.50;2.13;;;23.30;82.90;;;;;;5059494;28;20060;-66
2023/08/12 04:19:57;;;;;;;4.05;2.70;;;23.30;82.80;;;;;;5042122;28;20025;-61
2023/08/12 04:22:23;;;;;;;3.55;2.15;;;23.30;82.90;;;;;;5055731;28;20036;-62
2023/08/12 04:24:49;;;;;;;3.33;2.33;;;23.30;82.90;;;;;;5047685;28;20033;-62
2023/08/12 04:27:16;;;;;;;3.55;2.38;;;23.30;82.90;;;;;;5047466;28;20031;-62
2023/08/12 04:29:42;;;;;;;2.35;1.90;;;23.30;82.90;;;;;;5039295;28;20124;-62
2023/08/12 04:32:08;;;;;;;3.05;2.40;;;23.30;82.90;;;;;;5045825;28;20499;-62
2023/08/12 04:34:33;;;;;;;3.47;2.88;;;23.30;82.90;;;;;;5051906;28;20034;-67
2023/08/12 04:36:59;;;;;;;2.92;2.22;;;23.20;82.90;;;;;;5044199;28;20031;-66
2023/08/12 04:39:25;;;;;;;4.15;2.67;;;23.30;83.00;;;;;;5037358;28;20079;-67
2023/08/12 04:41:51;;;;;;;4.57;2.47;;;23.30;83.00;;;;;;5057601;28;20041;-66
2023/08/12 04:44:16;;;;;;;2.78;2.53;;;23.30;83.00;;;;;;5055390;28;20033;-62
2023/08/12 04:46:42;;;;;;;3.78;2.72;;;23.30;83.00;;;;;;5058129;28;20055;-66
2023/08/12 04:49:08;;;;;;;4.50;2.63;;;23.30;83.10;;;;;;5050972;28;20028;-62
2023/08/12 04:51:34;;;;;;;2.80;2.35;;;23.30;83.20;;;;;;5052734;28;20151;-62
2023/08/12 04:54:01;;;;;;;3.63;2.55;;;23.30;83.20;;;;;;5055329;28;20090;-67
2023/08/12 04:56:28;;;;;;;4.47;2.30;;;23.30;83.30;;;;;;5048222;28;20028;-67
2023/08/12 04:58:55;;;;;;;9.30;2.30;;;23.20;83.30;;;;;;5050265;28;20021;-67
2023/08/12 05:01:20;;;;;;;2.58;1.83;;;23.30;83.40;;;;;;5052728;28;20038;-63
2023/08/12 05:03:46;;;;;;;3.55;2.80;;;23.30;83.30;;;;;;5043998;28;20036;-62
2023/08/12 05:06:12;;;;;;;4.85;2.45;;;23.30;83.40;;;;;;5051788;28;20034;-67
2023/08/12 05:08:37;;;;;;;7.72;2.55;;;23.30;83.60;;;;;;5045611;28;20135;-67
2023/08/12 05:11:03;;;;;;;3.70;2.75;;;23.30;83.40;;;;;;5045977;28;20603;-62
2023/08/12 05:13:29;;;;;;;4.00;2.00;;;23.30;83.40;;;;;;5054283;28;20028;-63
2023/08/12 05:15:55;;;;;;;4.38;3.25;;;23.30;83.40;;;;;;5044377;28;20017;-63
2023/08/12 05:18:23;;;;;;;7.85;3.88;;;23.30;84.00;;;;;;5057754;28;20040;-63
2023/08/12 05:20:51;;;;;;;3.75;2.72;;;23.30;83.80;;;;;;5040716;28;20028;-63
2023/08/12 05:23:16;;;;;;;5.20;2.85;;;23.20;83.90;;;;;;5045895;28;20021;-67
2023/08/12 05:25:42;;;;;;;4.35;2.80;;;23.20;84.00;;;;;;5043037;28;20097;-67
2023/08/12 05:28:08;;;;;;;3.60;2.55;;;23.20;84.10;;;;;;5034010;28;20086;-67
2023/08/12 05:30:34;;;;;;;4.75;2.65;;;23.20;84.00;;;;;;5049900;28;20037;-67
2023/08/12 05:33:00;;;;;;;8.27;2.40;;;23.20;83.90;;;;;;5046480;28;20031;-67
2023/08/12 05:35:25;;;;;;;6.00;2.42;;;23.20;83.80;;;;;;5049142;28;20392;-67
2023/08/12 05:37:51;;;;;;;3.70;2.58;;;23.20;83.80;;;;;;5052458;28;20037;-67
2023/08/12 05:40:17;;;;;;;3.80;2.28;;;23.20;83.90;;;;;;5050873;28;20021;-67
2023/08/12 05:42:42;;;;;;;5.15;2.85;;;23.20;83.90;;;;;;5045930;28;20071;-66
2023/08/12 05:45:08;;;;;;;4.85;2.67;;;23.20;84.10;;;;;;5057312;28;20471;-67
2023/08/12 05:47:34;;;;;;;4.82;2.75;;;23.10;84.20;;;;;;5045626;28;20037;-67
2023/08/12 05:50:00;;;;;;;4.30;3.28;;;23.10;84.50;;;;;;5048625;28;20033;-63
2023/08/12 05:52:26;;;;;;;8.07;3.58;;;23.00;84.70;;;;;;5050697;28;20617;-63
2023/08/12 05:54:51;;;;;;;5.25;2.78;;;23.00;85.00;;;;;;5048726;28;20048;-63
2023/08/12 05:57:17;;;;;;;7.40;3.45;;;22.90;85.00;;;;;;5051152;28;20045;-63
2023/08/12 05:59:43;;;;;;;3.95;2.53;;;22.90;85.00;;;;;;5051945;28;20107;-63
2023/08/12 06:02:09;;;;;;;4.03;2.50;;;22.90;85.00;;;;;;5041942;28;20509;-63
2023/08/12 06:04:35;;;;;;;2.60;2.03;;;22.90;85.00;;;;;;5051261;28;20502;-63
2023/08/12 06:07:00;;;;;;;3.88;2.55;;;22.90;84.90;;;;;;5044802;28;20029;-63
2023/08/12 06:09:26;;;;;;;4.53;2.50;;;22.90;85.00;;;;;;5046883;28;20056;-64
2023/08/12 06:11:52;;;;;;;3.53;2.47;;;22.90;85.00;;;;;;5044173;28;20052;-63
2023/08/12 06:14:17;;;;;;;4.03;2.58;;;22.90;85.10;;;;;;5035184;28;20064;-63
2023/08/12 06:16:43;;;;;;;2.53;1.85;;;22.90;85.00;;;;;;5036458;28;20472;-64
2023/08/12 06:19:08;;;;;;;2.72;2.47;;;22.90;85.00;;;;;;5055619;28;20025;-63
2023/08/12 06:21:34;;;;;;;2.47;2.25;;;22.90;85.00;;;;;;5045693;28;20037;-64
2023/08/12 06:24:00;;;;;;;2.03;1.50;;;22.90;85.00;;;;;;5052378;28;20043;-64
2023/08/12 06:26:25;;;;;;;3.25;1.55;;;22.90;84.90;;;;;;5047165;28;20057;-64
2023/08/12 06:28:51;;;;;;;3.75;2.60;;;22.90;84.90;;;;;;5056219;28;20058;-64
2023/08/12 06:31:17;;;;;;;2.72;2.03;;;22.80;84.90;;;;;;5038824;28;20022;-63
2023/08/12 06:33:42;;;;;;;3.38;1.55;;;22.80;85.00;;;;;;5044004;28;20036;-64
2023/08/12 06:36:08;;;;;;;3.60;2.05;;;22.80;85.10;;;;;;5044255;28;20026;-63
2023/08/12 06:38:34;;;;;;;1.83;1.48;;;22.80;85.10;;;;;;5058009;28;20033;-66
2023/08/12 06:40:59;;;;;;;2.83;2.08;;;22.80;85.10;;;;;;5039877;28;20657;-66
2023/08/12 06:43:25;;;;;;;2.42;1.48;;;22.80;85.70;;;;;;5044474;28;20029;-65
2023/08/12 06:45:51;;;;;;;4.28;1.95;;;22.80;85.10;;;;;;5047389;28;20029;-65
2023/08/12 06:48:17;;;;;;;2.78;1.48;;;22.80;85.20;;;;;;5040029;28;20029;-66
2023/08/12 06:50:42;;;;;;;4.05;2.50;;;22.70;85.10;;;;;;5043476;28;20389;-66
2023/08/12 06:53:08;;;;;;;2.33;1.88;;;22.70;85.10;;;;;;5035764;28;20029;-65
2023/08/12 06:55:33;;;;;;;2.78;1.80;;;22.70;85.20;;;;;;5047531;28;20093;-62
2023/08/12 06:58:00;;;;;;;2.97;1.30;;;22.60;85.20;;;;;;5044452;28;20036;-64
2023/08/12 07:00:26;;;;;;;3.88;1.00;;;22.60;85.30;;;;;;5046662;28;20067;-64
2023/08/12 07:02:52;;;;;;;1.73;1.60;;;22.60;85.30;;;;;;5045788;28;20061;-65
2023/08/12 07:05:17;;;;;;;1.55;1.42;;;22.60;85.20;;;;;;5051701;28;20052;-65
2023/08/12 07:07:43;;;;;;;3.22;1.73;;;22.60;85.10;;;;;;5050655;28;20036;-66
2023/08/12 07:10:10;;;;;;;1.50;1.40;;;22.60;85.10;;;;;;5064579;28;20461;-65
2023/08/12 07:12:35;;;;;;;1.40;1.05;;;22.60;85.10;;;;;;5047461;28;20470;-63
2023/08/12 07:15:01;;;;;;;1.30;1.20;;;22.60;85.10;;;;;;5046442;28;20040;-62
2023/08/12 07:17:27;;;;;;;2.20;1.13;;;22.60;85.00;;;;;;5042859;28;20495;-63
2023/08/12 07:19:52;;;;;;;1.02;0.90;;;22.70;84.90;;;;;;5052937;28;20036;-63
2023/08/12 07:22:20;;;;;;;3.30;1.15;;;22.70;84.80;;;;;;5053019;28;20033;-63
2023/08/12 07:24:45;;;;;;;3.97;1.58;;;22.80;84.80;;;;;;5048332;28;20391;-63
2023/08/12 07:27:11;;;;;;;1.45;1.35;;;22.80;84.60;;;;;;5040862;28;20038;-62
2023/08/12 07:29:37;;;;;;;1.00;0.82;;;22.90;84.50;;;;;;5043332;28;20483;-66
2023/08/12 07:32:03;;;;;;;3.40;1.38;;;22.90;84.40;;;;;;5038759;28;20025;-65
2023/08/12 07:34:28;;;;;;;3.55;1.55;;;22.90;84.40;;;;;;5033362;28;20063;-67
2023/08/12 07:36:54;;;;;;;1.58;1.42;;;22.90;84.50;;;;;;5044699;28;20098;-66
2023/08/12 07:39:20;;;;;;;1.25;1.00;;;22.90;84.30;;;;;;5053230;28;20072;-67
2023/08/12 07:41:45;;;;;;;2.00;1.08;;;22.90;84.40;;;;;;5051998;28;20029;-66
2023/08/12 07:44:11;;;;;;;3.35;1.58;;;22.90;84.40;;;;;;5057590;28;20197;-65
2023/08/12 07:46:37;;;;;;;1.58;1.23;;;22.90;84.50;;;;;;5054150;28;20071;-67
2023/08/12 07:49:03;;;;;;;1.55;1.30;;;22.90;84.40;;;;;;5048034;28;20037;-67
2023/08/12 07:51:29;;;;;;;1.25;1.15;;;22.90;84.40;;;;;;5054502;28;20461;-66
2023/08/12 07:53:55;;;;;;;1.67;1.05;;;22.90;84.50;;;;;;5059101;28;20048;-67
2023/08/12 07:56:21;;;;;;;1.17;1.08;;;22.90;84.70;;;;;;5046156;28;20067;-66
2023/08/12 07:58:47;;;;;;;1.45;1.00;;;22.90;84.60;;;;;;5050077;28;20028;-67
2023/08/12 08:01:13;;;;;;;8.13;1.80;;;22.80;84.60;;;;;;5051901;28;20040;-70
2023/08/12 08:03:39;;;;;;;1.10;1.00;;;22.80;84.70;;;;;;5045170;28;20017;-65
2023/08/12 08:06:05;;;;;;;1.50;1.20;;;22.60;84.90;;;;;;5051646;28;20029;-72
2023/08/12 08:08:30;;;;;;;0.80;0.80;;;22.60;85.10;;;;;;5053855;28;20095;-68
2023/08/12 08:10:56;;;;;;;1.08;0.80;;;22.60;85.10;;;;;;5049880;28;20029;-66
2023/08/12 08:13:22;;;;;;;3.90;1.05;;;22.60;85.20;;;;;;5040432;28;20036;-67
2023/08/12 08:15:47;;;;;;;1.00;0.70;;;22.60;85.10;;;;;;5040027;28;20101;-68
2023/08/12 08:18:13;;;;;;;1.10;1.00;;;22.60;85.10;;;;;;5038505;28;20484;-68
2023/08/12 08:20:41;;;;;;;0.77;0.70;;;22.60;85.10;;;;;;5047573;28;20036;-66
2023/08/12 08:23:07;;;;;;;1.40;0.90;;;22.60;85.20;;;;;;5050748;28;20056;-66
2023/08/12 08:25:33;;;;;;;1.13;1.00;;;22.60;85.20;;;;;;5049956;28;20587;-67
2023/08/12 08:27:58;;;;;;;0.93;0.93;;;22.60;85.30;;;;;;5029895;28;20044;-66
2023/08/12 08:30:25;;;;;;;1.23;0.77;;;22.60;85.40;;;;;;5043870;28;20029;-67
2023/08/12 08:32:51;;;;;;;1.13;0.82;;;22.60;85.40;;;;;;5038851;28;21781;-65
2023/08/12 08:35:17;;;;;;;0.68;0.68;;;22.60;85.40;;;;;;5036127;28;20116;-63
2023/08/12 08:37:42;;;;;;;1.08;0.98;;;22.70;85.60;;;;;;5039158;28;20041;-63
2023/08/12 08:40:08;;;;;;;1.33;1.20;;;22.70;85.70;;;;;;5038640;28;20452;-65
2023/08/12 08:42:34;;;;;;;1.08;0.80;;;22.70;85.70;;;;;;5039506;28;20051;-67
2023/08/12 08:45:02;;;;;;;0.65;0.55;;;22.70;85.80;;;;;;5051484;28;20028;-66
2023/08/12 08:47:28;;;;;;;2.08;0.90;;;22.70;85.90;;;;;;5057867;28;20033;-67
2023/08/12 08:49:58;;;;;;;1.20;1.00;;;22.70;85.90;;;;;;5051228;28;20090;-69
2023/08/12 08:52:25;;;;;;;0.93;0.70;;;22.70;86.20;;;;;;5051302;28;20049;-67
2023/08/12 08:54:51;;;;;;;0.80;0.80;;;22.70;86.40;;;;;;5045108;28;20115;-64
2023/08/12 08:57:18;;;;;;;0.80;0.80;;;22.70;86.40;;;;;;5042752;28;20021;-67
2023/08/12 08:59:44;;;;;;;0.73;0.70;;;22.70;86.40;;;;;;5046202;28;20044;-68
2023/08/12 09:02:19;;;;;;;1.85;1.52;;;22.70;86.50;;;;;;5049897;28;20106;-70
2023/08/12 09:04:46;;;;;;;1.23;0.90;;;22.70;86.90;;;;;;5039187;28;20127;-64
2023/08/12 09:07:13;;;;;;;0.73;0.73;;;22.70;87.20;;;;;;5044693;28;20025;-63
2023/08/12 09:09:48;;;;;;;1.70;0.77;;;22.60;87.30;;;;;;5041883;28;21343;-64
2023/08/12 09:12:16;;;;;;;1.25;1.13;;;22.60;87.50;;;;;;5032801;28;20033;-64
2023/08/12 09:14:45;;;;;;;0.95;0.80;;;22.60;87.50;;;;;;5042978;28;20060;-68
2023/08/12 09:17:11;;;;;;;1.02;0.93;;;22.60;87.50;;;;;;5041674;28;20026;-67
2023/08/12 09:19:37;;;;;;;0.80;0.80;;;22.60;87.60;;;;;;5043334;28;20029;-66
2023/08/12 09:22:05;;;;;;;0.80;0.80;;;22.70;87.50;;;;;;5046529;28;20130;-66
2023/08/12 09:24:31;;;;;;;0.98;0.90;;;22.70;87.40;;;;;;5047245;28;20052;-66
2023/08/12 09:26:57;;;;;;;0.93;0.90;;;22.70;87.40;;;;;;5041837;28;20037;-63
2023/08/12 09:29:33;;;;;;;0.95;0.85;;;22.70;87.40;;;;;;5044331;28;20076;-68
2023/08/12 09:32:12;;;;;;;0.73;0.73;;;22.80;87.50;;;;;;5041906;28;20040;-64
2023/08/12 09:34:48;;;;;;;0.50;0.50;;;22.80;87.30;;;;;;5076361;28;20061;-64
2023/08/12 09:37:15;;;;;;;0.98;0.60;;;22.80;87.20;;;;;;5028885;28;20025;-64
2023/08/12 09:39:41;;;;;;;0.70;0.70;;;22.90;87.20;;;;;;5028864;28;20035;-64
2023/08/12 09:42:07;;;;;;;0.50;0.50;;;23.00;87.20;;;;;;5031000;28;20033;-62
2023/08/12 09:44:35;;;;;;;0.55;0.50;;;23.00;86.90;;;;;;5043240;28;20468;-66
2023/08/12 09:47:01;;;;;;;0.45;0.45;;;23.10;86.70;;;;;;5034874;28;20390;-66
2023/08/12 09:49:27;;;;;;;0.40;0.40;;;23.20;86.50;;;;;;5053155;28;20024;-75
2023/08/12 09:51:53;;;;;;;0.35;0.35;;;23.30;86.30;;;;;;5040100;28;20032;-67
2023/08/12 09:54:19;;;;;;;0.38;0.38;;;23.40;86.10;;;;;;5043309;28;20499;-73
2023/08/12 09:56:48;;;;;;;0.40;0.40;;;23.50;85.70;;;;;;5055605;28;20029;-71
2023/08/12 09:59:20;;;;;;;0.50;0.50;;;23.60;85.70;;;;;;5044948;28;20025;-72
2023/08/12 10:01:46;;;;;;;0.40;0.40;;;23.70;85.20;;;;;;5033909;28;20022;-74
2023/08/12 10:04:16;;;;;;;0.40;0.40;;;23.60;84.60;;;;;;5045807;28;20029;-72
2023/08/12 10:06:43;;;;;;;0.45;0.45;;;23.60;84.70;;;;;;5041947;28;20136;-70
2023/08/12 10:09:11;;;;;;;0.45;0.43;;;23.60;84.80;;;;;;5047111;28;20022;-70
2023/08/12 10:11:37;;;;;;;0.43;0.43;;;23.60;84.50;;;;;;5038967;28;20045;-73
2023/08/12 10:14:04;;;;;;;0.43;0.43;;;23.40;84.80;;;;;;5068453;28;20032;-71
2023/08/12 10:16:30;;;;;;;0.47;0.47;;;23.30;84.70;;;;;;5044410;28;20115;-73
2023/08/12 10:18:57;;;;;;;0.50;0.50;;;23.30;85.20;;;;;;5035591;28;20036;-72
2023/08/12 10:21:25;;;;;;;0.40;0.40;;;23.50;85.30;;;;;;5038381;28;20549;-69
2023/08/12 10:23:51;;;;;;;0.50;0.50;;;23.80;85.10;;;;;;5030265;28;20051;-74
2023/08/12 10:26:17;;;;;;;0.40;0.40;;;24.10;84.70;;;;;;5039547;28;20025;-70
2023/08/12 10:28:43;;;;;;;0.25;0.25;;;24.50;84.00;;;;;;5044180;28;20124;-75
2023/08/12 10:31:11;;;;;;;0.40;0.40;;;24.60;82.80;;;;;;5047542;28;20147;-73
2023/08/12 10:33:41;;;;;;;0.40;0.40;;;24.60;82.80;;;;;;5046959;28;20033;-62
2023/08/12 10:36:08;;;;;;;0.38;0.32;;;24.50;82.50;;;;;;5045684;28;20024;-71
2023/08/12 10:38:34;;;;;;;0.98;0.40;;;24.30;82.70;;;;;;5048195;28;20044;-72
2023/08/12 10:41:16;;;;;;;0.50;0.50;;;24.00;81.40;;;;;;5038484;28;20020;-70
2023/08/12 10:43:54;;;;;;;;;;;23.90;81.60;;;;;;5037603;28;20038;-65
2023/08/12 10:46:33;;;;;;;0.73;0.50;;;23.80;82.00;;;;;;5048153;28;20310;-62
2023/08/12 10:49:02;;;;;;;0.60;0.60;;;23.80;82.20;;;;;;5048986;28;20024;-69
2023/08/12 10:51:51;;;;;;;0.60;0.60;;;23.80;82.20;;;;;;5048843;28;20112;-73
2023/08/12 10:54:20;;;;;;;0.60;0.60;;;23.80;82.10;;;;;;5044353;28;20025;-64
2023/08/12 10:57:13;;;;;;;1.77;0.90;;;23.70;82.00;;;;;;5041908;28;20364;-67
2023/08/12 10:59:44;;;;;;;0.60;0.57;;;23.70;81.30;;;;;;5041256;28;20025;-63
2023/08/12 11:02:23;;;;;;;1.15;0.82;;;23.70;81.30;;;;;;5045708;28;20044;-69
2023/08/12 11:04:57;;;;;;;0.60;0.60;;;24.00;81.00;;;;;;5047302;28;20029;-67
2023/08/12 11:07:42;;;;;;;1.50;0.50;;;24.20;80.10;;;;;;5043009;28;20063;-62
2023/08/12 11:10:15;;;;;;;0.75;0.70;;;24.40;78.90;;;;;;5046359;28;20120;-64
2023/08/12 11:12:48;;;;;;;0.73;0.50;;;24.60;78.80;;;;;;5033345;28;20053;-64
2023/08/12 11:15:13;;;;;;;0.40;0.40;;;24.80;78.20;;;;;;5041467;28;20028;-64
2023/08/12 11:17:41;;;;;;;0.68;0.43;;;25.10;77.60;;;;;;5036937;28;20041;-64
2023/08/12 11:20:09;;;;;;;0.65;0.65;;;25.30;75.80;;;;;;5047752;28;20037;-64
2023/08/12 11:22:42;;;;;;;0.50;0.50;;;25.40;74.60;;;;;;5039048;28;20024;-64
2023/08/12 11:25:11;;;;;;;0.50;0.50;;;25.40;73.90;;;;;;5049007;28;20045;-63
2023/08/12 11:27:41;;;;;;;1.00;1.00;;;25.40;70.80;;;;;;5047372;28;20495;-63
2023/08/12 11:30:08;;;;;;;0.30;0.30;;;25.50;71.50;;;;;;5038562;28;20026;-67
2023/08/12 11:32:34;;;;;;;1.60;0.45;;;25.60;71.30;;;;;;5049290;28;20078;-64
2023/08/12 11:35:00;;;;;;;0.47;0.47;;;25.80;70.90;;;;;;5043880;28;20483;-64
2023/08/12 11:37:26;;;;;;;1.30;0.88;;;26.00;71.10;;;;;;5051565;28;20047;-64
2023/08/12 11:39:52;;;;;;;0.40;0.40;;;26.10;68.30;;;;;;5049803;28;20025;-64
2023/08/12 11:42:18;;;;;;;0.40;0.40;;;26.20;68.70;;;;;;5052526;28;20510;-64
2023/08/12 11:44:44;;;;;;;1.00;0.63;;;26.20;68.70;;;;;;5045977;28;20029;-64
2023/08/12 11:47:09;;;;;;;0.60;0.60;;;26.30;66.70;;;;;;5055577;28;20542;-64
2023/08/12 11:49:35;;;;;;;2.95;0.60;;;26.20;64.90;;;;;;5045697;28;20033;-63
2023/08/12 11:52:02;;;;;;;1.15;0.50;;;26.10;65.90;;;;;;5041781;28;20036;-64
2023/08/12 11:54:28;;;;;;;0.40;0.40;;;26.20;64.50;;;;;;5033206;28;20047;-68
2023/08/12 11:56:53;;;;;;;1.00;0.47;;;26.20;64.50;;;;;;5040345;28;20119;-64
2023/08/12 11:59:22;;;;;;;0.70;0.70;;;26.10;63.80;;;;;;5047090;28;20116;-63
2023/08/12 12:01:49;;;;;;;0.93;0.68;;;26.10;64.70;;;;;;5046479;28;20025;-64
2023/08/12 12:04:15;;;;;;;0.50;0.50;;;26.30;65.40;;;;;;5043582;28;20361;-68
2023/08/12 12:06:41;;;;;;;0.90;0.57;;;26.70;64.50;;;;;;5043717;28;20033;-63
2023/08/12 12:09:09;;;;;;;0.52;0.43;;;27.10;64.70;;;;;;5051374;28;20079;-63
2023/08/12 12:11:38;;;;;;;0.98;0.60;;;27.30;63.60;;;;;;5049411;28;20045;-63
2023/08/12 12:14:06;;;;;;;1.05;0.52;;;27.60;63.10;;;;;;5055200;28;20024;-68
2023/08/12 12:16:39;;;;;;;3.25;0.85;;;27.80;63.10;;;;;;5038260;28;20029;-63
2023/08/12 12:19:05;;;;;;;1.65;0.95;;;28.20;62.40;;;;;;5050224;28;20013;-67
2023/08/12 12:21:41;;;;;;;0.88;0.80;;;28.20;59.40;;;;;;5043516;28;20258;-63
2023/08/12 12:24:10;;;;;;;0.63;0.40;;;27.90;59.30;;;;;;5043701;28;20082;-63
2023/08/12 12:26:37;;;;;;;0.68;0.55;;;27.60;60.80;;;;;;5054322;28;20459;-63
2023/08/12 12:29:06;;;;;;;1.23;0.55;;;27.70;61.70;;;;;;5044356;28;20441;-63
2023/08/12 12:31:35;;;;;;;1.35;0.80;;;28.00;61.00;;;;;;5042876;28;20034;-66
2023/08/12 12:34:04;;;;;;;2.28;1.40;;;28.00;59.40;;;;;;5043058;28;20555;-63
2023/08/12 12:36:30;;;;;;;1.02;0.75;;;27.80;59.40;;;;;;5048765;28;20388;-65
2023/08/12 12:38:55;;;;;;;2.72;0.80;;;27.70;58.80;;;;;;5043791;28;20039;-66
2023/08/12 12:41:21;;;;;;;0.88;0.57;;;27.70;59.60;;;;;;5046617;28;20034;-66
2023/08/12 12:43:47;;;;;;;0.93;0.60;;;27.80;59.70;;;;;;5046983;28;20028;-66
2023/08/12 12:46:13;;;;;;;1.25;0.70;;;27.80;59.60;;;;;;5046988;28;20040;-66